sensor_id;sensor_type;location;lat;lon;timestamp;pressure;altitude;pressure_sealevel;temperature;humidity
57568;BME280;43403;51.948;5.922;2023-03-11T00:02:25;100588.59;;;0.91;100.00
57568;BME280;43403;51.948;5.922;2023-03-11T00:04:52;100594.94;;;0.86;100.00
57568;BME280;43403;51.948;5.922;2023-03-11T00:07:18;100593.19;;;0.86;100.00
57568;BME280;43403;51.948;5.922;2023-03-11T00:09:45;100598.69;;;0.80;100.00
57568;BME280;43403;51.948;5.922;2023-03-11T00:12:12;100591.06;;;0.78;100.00
57568;BME280;43403;51.948;5.922;2023-03-11T00:14:40;100597.13;;;0.77;100.00
57568;BME280;43403;51.948;5.922;2023-03-11T00:17:07;100606.88;;;0.72;100.00
57568;BME280;43403;51.948;5.922;2023-03-11T00:19:33;100601.84;;;0.71;100.00
57568;BME280;43403;51.948;5.922;2023-03-11T00:22:01;100606.72;;;0.75;100.00
57568;BME280;43403;51.948;5.922;2023-03-11T00:24:28;100612.78;;;0.74;100.00
57568;BME280;43403;51.948;5.922;2023-03-11T00:26:55;100616.13;;;0.76;100.00
57568;BME280;43403;51.948;5.922;2023-03-11T00:29:21;100616.41;;;0.72;100.00
57568;BME280;43403;51.948;5.922;2023-03-11T00:31:48;100625.81;;;0.73;100.00
57568;BME280;43403;51.948;5.922;2023-03-11T00:34:14;100628.28;;;0.74;100.00
57568;BME280;43403;51.948;5.922;2023-03-11T00:36:41;100633.66;;;0.71;100.00
57568;BME280;43403;51.948;5.922;2023-03-11T00:39:07;100620.91;;;0.68;100.00
57568;BME280;43403;51.948;5.922;2023-03-11T00:41:36;100642.06;;;0.75;100.00
57568;BME280;43403;51.948;5.922;2023-03-11T00:44:03;100638.63;;;0.74;100.00
57568;BME280;43403;51.948;5.922;2023-03-11T00:46:29;100653.19;;;0.75;100.00
57568;BME280;43403;51.948;5.922;2023-03-11T00:48:57;100647.28;;;0.73;100.00
57568;BME280;43403;51.948;5.922;2023-03-11T00:51:24;100652.53;;;0.72;100.00
57568;BME280;43403;51.948;5.922;2023-03-11T00:53:50;100653.47;;;0.71;100.00
57568;BME280;43403;51.948;5.922;2023-03-11T00:56:17;100661.22;;;0.71;100.00
57568;BME280;43403;51.948;5.922;2023-03-11T00:58:44;100658.38;;;0.75;100.00
57568;BME280;43403;51.948;5.922;2023-03-11T01:01:14;100660.13;;;0.75;100.00
57568;BME280;43403;51.948;5.922;2023-03-11T01:03:41;100663.81;;;0.71;100.00
57568;BME280;43403;51.948;5.922;2023-03-11T01:06:08;100662.72;;;0.75;100.00
57568;BME280;43403;51.948;5.922;2023-03-11T01:08:35;100667.22;;;0.71;100.00
57568;BME280;43403;51.948;5.922;2023-03-11T01:11:03;100665.66;;;0.69;100.00
57568;BME280;43403;51.948;5.922;2023-03-11T01:13:30;100664.72;;;0.70;100.00
57568;BME280;43403;51.948;5.922;2023-03-11T01:15:57;100670.13;;;0.65;100.00
57568;BME280;43403;51.948;5.922;2023-03-11T01:18:24;100661.66;;;0.63;100.00
57568;BME280;43403;51.948;5.922;2023-03-11T01:20:52;100661.72;;;0.62;100.00
57568;BME280;43403;51.948;5.922;2023-03-11T01:23:19;100663.56;;;0.59;100.00
57568;BME280;43403;51.948;5.922;2023-03-11T01:25:46;100675.06;;;0.54;100.00
57568;BME280;43403;51.948;5.922;2023-03-11T01:28:13;100680.91;;;0.57;100.00
57568;BME280;43403;51.948;5.922;2023-03-11T01:30:40;100684.22;;;0.59;100.00
57568;BME280;43403;51.948;5.922;2023-03-11T01:33:10;100685.03;;;0.60;100.00
57568;BME280;43403;51.948;5.922;2023-03-11T01:35:39;100691.13;;;0.59;100.00
57568;BME280;43403;51.948;5.922;2023-03-11T01:38:07;100698.03;;;0.58;100.00
57568;BME280;43403;51.948;5.922;2023-03-11T01:40:40;100698.69;;;0.62;100.00
57568;BME280;43403;51.948;5.922;2023-03-11T01:46:21;100695.44;;;0.58;100.00
57568;BME280;43403;51.948;5.922;2023-03-11T01:48:51;100697.28;;;0.56;100.00
57568;BME280;43403;51.948;5.922;2023-03-11T01:51:32;100704.88;;;0.59;100.00
57568;BME280;43403;51.948;5.922;2023-03-11T01:54:04;100703.31;;;0.57;100.00
57568;BME280;43403;51.948;5.922;2023-03-11T01:56:32;100701.78;;;0.53;100.00
57568;BME280;43403;51.948;5.922;2023-03-11T01:58:59;100700.22;;;0.50;100.00
57568;BME280;43403;51.948;5.922;2023-03-11T02:01:26;100708.88;;;0.49;100.00
57568;BME280;43403;51.948;5.922;2023-03-11T02:03:54;100703.63;;;0.51;100.00
57568;BME280;43403;51.948;5.922;2023-03-11T02:06:22;100711.69;;;0.45;100.00
57568;BME280;43403;51.948;5.922;2023-03-11T02:08:49;100702.22;;;0.45;100.00
57568;BME280;43403;51.948;5.922;2023-03-11T02:11:25;100704.03;;;0.43;100.00
57568;BME280;43403;51.948;5.922;2023-03-11T02:13:53;100708.38;;;0.43;100.00
57568;BME280;43403;51.948;5.922;2023-03-11T02:16:23;100705.78;;;0.43;100.00
57568;BME280;43403;51.948;5.922;2023-03-11T02:18:50;100705.78;;;0.43;100.00
57568;BME280;43403;51.948;5.922;2023-03-11T02:21:26;100712.56;;;0.45;100.00
57568;BME280;43403;51.948;5.922;2023-03-11T02:29:24;100723.38;;;0.36;100.00
57568;BME280;43403;51.948;5.922;2023-03-11T02:31:51;100720.78;;;0.36;100.00
57568;BME280;43403;51.948;5.922;2023-03-11T02:34:27;100719.69;;;0.40;100.00
57568;BME280;43403;51.948;5.922;2023-03-11T02:36:55;100718.94;;;0.38;100.00
57568;BME280;43403;51.948;5.922;2023-03-11T02:39:36;100727.53;;;0.38;100.00
57568;BME280;43403;51.948;5.922;2023-03-11T02:42:25;100728.44;;;0.37;100.00
57568;BME280;43403;51.948;5.922;2023-03-11T02:44:59;100728.44;;;0.37;100.00
57568;BME280;43403;51.948;5.922;2023-03-11T02:47:27;100739.59;;;0.38;100.00
57568;BME280;43403;51.948;5.922;2023-03-11T02:49:55;100744.69;;;0.39;100.00
57568;BME280;43403;51.948;5.922;2023-03-11T02:52:24;100748.00;;;0.42;100.00
57568;BME280;43403;51.948;5.922;2023-03-11T02:54:53;100731.03;;;0.37;100.00
57568;BME280;43403;51.948;5.922;2023-03-11T02:57:19;100737.91;;;0.37;100.00
57568;BME280;43403;51.948;5.922;2023-03-11T02:59:46;100736.09;;;0.39;100.00
57568;BME280;43403;51.948;5.922;2023-03-11T03:02:12;100731.59;;;0.43;100.00
57568;BME280;43403;51.948;5.922;2023-03-11T03:04:39;100728.94;;;0.44;100.00
57568;BME280;43403;51.948;5.922;2023-03-11T03:07:05;100725.28;;;0.48;100.00
57568;BME280;43403;51.948;5.922;2023-03-11T03:09:33;100725.00;;;0.53;100.00
57568;BME280;43403;51.948;5.922;2023-03-11T03:12:01;100729.28;;;0.54;100.00
57568;BME280;43403;51.948;5.922;2023-03-11T03:14:28;100731.03;;;0.53;100.00
57568;BME280;43403;51.948;5.922;2023-03-11T03:16:55;100738.59;;;0.56;100.00
57568;BME280;43403;51.948;5.922;2023-03-11T03:19:22;100737.75;;;0.56;100.00
57568;BME280;43403;51.948;5.922;2023-03-11T03:21:48;100738.69;;;0.55;100.00
57568;BME280;43403;51.948;5.922;2023-03-11T03:24:15;100741.00;;;0.59;100.00
57568;BME280;43403;51.948;5.922;2023-03-11T03:26:41;100745.25;;;0.61;100.00
57568;BME280;43403;51.948;5.922;2023-03-11T03:29:08;100749.84;;;0.55;100.00
57568;BME280;43403;51.948;5.922;2023-03-11T03:31:34;100750.00;;;0.52;100.00
57568;BME280;43403;51.948;5.922;2023-03-11T03:34:01;100755.97;;;0.53;100.00
57568;BME280;43403;51.948;5.922;2023-03-11T03:36:28;100762.06;;;0.52;100.00
57568;BME280;43403;51.948;5.922;2023-03-11T03:38:55;100770.66;;;0.52;100.00
57568;BME280;43403;51.948;5.922;2023-03-11T03:41:22;100763.84;;;0.51;100.00
57568;BME280;43403;51.948;5.922;2023-03-11T03:43:49;100784.47;;;0.51;100.00
57568;BME280;43403;51.948;5.922;2023-03-11T03:46:15;100784.72;;;0.47;100.00
57568;BME280;43403;51.948;5.922;2023-03-11T03:48:45;100786.31;;;0.49;100.00
57568;BME280;43403;51.948;5.922;2023-03-11T03:51:12;100786.38;;;0.48;100.00
57568;BME280;43403;51.948;5.922;2023-03-11T03:53:39;100788.03;;;0.49;100.00
57568;BME280;43403;51.948;5.922;2023-03-11T03:56:11;100792.22;;;0.51;100.00
57568;BME280;43403;51.948;5.922;2023-03-11T03:58:38;100786.38;;;0.48;100.00
57568;BME280;43403;51.948;5.922;2023-03-11T04:01:06;100788.22;;;0.46;100.00
57568;BME280;43403;51.948;5.922;2023-03-11T04:03:33;100790.94;;;0.43;100.00
57568;BME280;43403;51.948;5.922;2023-03-11T04:06:21;100799.03;;;0.52;100.00
57568;BME280;43403;51.948;5.922;2023-03-11T04:08:49;100804.88;;;0.56;100.00
57568;BME280;43403;51.948;5.922;2023-03-11T04:11:16;100802.38;;;0.54;100.00
57568;BME280;43403;51.948;5.922;2023-03-11T04:13:43;100808.47;;;0.53;100.00
57568;BME280;43403;51.948;5.922;2023-03-11T04:16:16;100804.94;;;0.54;100.00
57568;BME280;43403;51.948;5.922;2023-03-11T04:18:42;100809.34;;;0.52;100.00
57568;BME280;43403;51.948;5.922;2023-03-11T04:21:09;100812.69;;;0.54;100.00
57568;BME280;43403;51.948;5.922;2023-03-11T04:23:36;100815.94;;;0.58;100.00
57568;BME280;43403;51.948;5.922;2023-03-11T04:26:03;100814.19;;;0.58;100.00
57568;BME280;43403;51.948;5.922;2023-03-11T04:28:29;100814.38;;;0.55;100.00
57568;BME280;43403;51.948;5.922;2023-03-11T04:30:56;100818.72;;;0.55;100.00
57568;BME280;43403;51.948;5.922;2023-03-11T04:33:23;100822.19;;;0.54;100.00
57568;BME280;43403;51.948;5.922;2023-03-11T04:35:50;100820.00;;;0.46;100.00
57568;BME280;43403;51.948;5.922;2023-03-11T04:38:16;100823.59;;;0.44;100.00
57568;BME280;43403;51.948;5.922;2023-03-11T04:40:43;100819.25;;;0.44;100.00
57568;BME280;43403;51.948;5.922;2023-03-11T04:43:09;100826.84;;;0.47;100.00
57568;BME280;43403;51.948;5.922;2023-03-11T04:45:40;100835.50;;;0.46;100.00
57568;BME280;43403;51.948;5.922;2023-03-11T04:48:08;100832.91;;;0.46;100.00
57568;BME280;43403;51.948;5.922;2023-03-11T04:50:34;100831.28;;;0.45;100.00
57568;BME280;43403;51.948;5.922;2023-03-11T04:53:01;100830.34;;;0.46;100.00
57568;BME280;43403;51.948;5.922;2023-03-11T04:55:27;100835.50;;;0.46;100.00
57568;BME280;43403;51.948;5.922;2023-03-11T04:57:54;100837.59;;;0.39;100.00
57568;BME280;43403;51.948;5.922;2023-03-11T05:00:21;100843.56;;;0.40;100.00
57568;BME280;43403;51.948;5.922;2023-03-11T05:02:50;100841.13;;;0.37;100.00
57568;BME280;43403;51.948;5.922;2023-03-11T05:05:17;100847.22;;;0.36;100.00
57568;BME280;43403;51.948;5.922;2023-03-11T05:07:45;100848.97;;;0.35;100.00
57568;BME280;43403;51.948;5.922;2023-03-11T05:10:12;100852.31;;;0.37;100.00
57568;BME280;43403;51.948;5.922;2023-03-11T05:12:39;100848.13;;;0.35;100.00
57568;BME280;43403;51.948;5.922;2023-03-11T05:15:06;100851.78;;;0.31;100.00
57568;BME280;43403;51.948;5.922;2023-03-11T05:17:32;100851.22;;;0.26;100.00
57568;BME280;43403;51.948;5.922;2023-03-11T05:19:59;100847.94;;;0.22;100.00
57568;BME280;43403;51.948;5.922;2023-03-11T05:22:26;100855.00;;;0.18;100.00
57568;BME280;43403;51.948;5.922;2023-03-11T05:24:52;100852.50;;;0.17;100.00
57568;BME280;43403;51.948;5.922;2023-03-11T05:27:19;100856.84;;;0.16;100.00
57568;BME280;43403;51.948;5.922;2023-03-11T05:29:46;100858.59;;;0.16;100.00
57568;BME280;43403;51.948;5.922;2023-03-11T05:32:13;100858.66;;;0.14;100.00
57568;BME280;43403;51.948;5.922;2023-03-11T05:34:39;100854.41;;;0.13;100.00
57568;BME280;43403;51.948;5.922;2023-03-11T05:37:06;100858.78;;;0.11;100.00
57568;BME280;43403;51.948;5.922;2023-03-11T05:39:33;100855.41;;;0.11;100.00
57568;BME280;43403;51.948;5.922;2023-03-11T05:42:00;100867.53;;;0.09;100.00
57568;BME280;43403;51.948;5.922;2023-03-11T05:44:26;100868.59;;;0.05;100.00
57568;BME280;43403;51.948;5.922;2023-03-11T05:46:53;100873.00;;;0.03;100.00
57568;BME280;43403;51.948;5.922;2023-03-11T05:49:20;100875.66;;;0.01;100.00
57568;BME280;43403;51.948;5.922;2023-03-11T05:51:48;100876.59;;;0.00;100.00
57568;BME280;43403;51.948;5.922;2023-03-11T05:54:15;100884.53;;;-0.05;100.00
57568;BME280;43403;51.948;5.922;2023-03-11T05:56:43;100876.28;;;-0.11;100.00
57568;BME280;43403;51.948;5.922;2023-03-11T05:59:14;100882.56;;;-0.17;100.00
57568;BME280;43403;51.948;5.922;2023-03-11T06:01:42;100888.78;;;-0.21;100.00
57568;BME280;43403;51.948;5.922;2023-03-11T06:04:09;100891.38;;;-0.21;100.00
57568;BME280;43403;51.948;5.922;2023-03-11T06:06:38;100901.69;;;-0.21;100.00
57568;BME280;43403;51.948;5.922;2023-03-11T06:09:06;100902.66;;;-0.24;100.00
57568;BME280;43403;51.948;5.922;2023-03-11T06:11:33;100907.91;;;-0.25;100.00
57568;BME280;43403;51.948;5.922;2023-03-11T06:13:59;100903.56;;;-0.25;100.00
57568;BME280;43403;51.948;5.922;2023-03-11T06:16:26;100910.47;;;-0.25;100.00
57568;BME280;43403;51.948;5.922;2023-03-11T06:18:52;100910.47;;;-0.25;100.00
57568;BME280;43403;51.948;5.922;2023-03-11T06:21:21;100918.97;;;-0.23;100.00
57568;BME280;43403;51.948;5.922;2023-03-11T06:23:49;100916.31;;;-0.22;100.00
57568;BME280;43403;51.948;5.922;2023-03-11T06:26:18;100923.13;;;-0.21;100.00
57568;BME280;43403;51.948;5.922;2023-03-11T06:28:46;100920.63;;;-0.22;100.00
57568;BME280;43403;51.948;5.922;2023-03-11T06:31:17;100920.50;;;-0.19;100.00
57568;BME280;43403;51.948;5.922;2023-03-11T06:33:45;100930.94;;;-0.22;100.00
57568;BME280;43403;51.948;5.922;2023-03-11T06:36:13;100936.94;;;-0.22;100.00
57568;BME280;43403;51.948;5.922;2023-03-11T06:38:40;100940.44;;;-0.23;100.00
57568;BME280;43403;51.948;5.922;2023-03-11T06:41:07;100936.03;;;-0.21;100.00
57568;BME280;43403;51.948;5.922;2023-03-11T06:43:34;100938.53;;;-0.19;100.00
57568;BME280;43403;51.948;5.922;2023-03-11T06:46:07;100941.88;;;-0.17;100.00
57568;BME280;43403;51.948;5.922;2023-03-11T06:48:34;100947.09;;;-0.18;100.00
57568;BME280;43403;51.948;5.922;2023-03-11T06:51:01;100941.06;;;-0.17;100.00
57568;BME280;43403;51.948;5.922;2023-03-11T06:53:28;100956.28;;;-0.13;100.00
57568;BME280;43403;51.948;5.922;2023-03-11T06:56:06;100959.50;;;-0.08;100.00
57568;BME280;43403;51.948;5.922;2023-03-11T06:58:34;100963.66;;;-0.05;100.00
57568;BME280;43403;51.948;5.922;2023-03-11T07:01:03;100967.88;;;-0.04;100.00
57568;BME280;43403;51.948;5.922;2023-03-11T07:03:30;100974.03;;;-0.07;100.00
57568;BME280;43403;51.948;5.922;2023-03-11T07:05:57;100978.19;;;-0.04;100.00
57568;BME280;43403;51.948;5.922;2023-03-11T07:08:24;100986.78;;;-0.04;100.00
57568;BME280;43403;51.948;5.922;2023-03-11T07:11:04;100978.13;;;-0.03;100.00
57568;BME280;43403;51.948;5.922;2023-03-11T07:13:31;100983.47;;;-0.06;100.00
57568;BME280;43403;51.948;5.922;2023-03-11T07:16:00;100989.38;;;-0.04;100.00
57568;BME280;43403;51.948;5.922;2023-03-11T07:18:27;100987.69;;;-0.05;100.00
57568;BME280;43403;51.948;5.922;2023-03-11T07:20:53;100991.84;;;-0.02;100.00
57568;BME280;43403;51.948;5.922;2023-03-11T07:23:20;100995.06;;;0.03;100.00
57568;BME280;43403;51.948;5.922;2023-03-11T07:25:47;100995.88;;;0.04;100.00
57568;BME280;43403;51.948;5.922;2023-03-11T07:28:14;101008.72;;;0.05;100.00
57568;BME280;43403;51.948;5.922;2023-03-11T07:30:40;101009.47;;;0.07;100.00
57568;BME280;43403;51.948;5.922;2023-03-11T07:33:09;101014.50;;;0.10;100.00
57568;BME280;43403;51.948;5.922;2023-03-11T07:35:36;101010.03;;;0.14;100.00
57568;BME280;43403;51.948;5.922;2023-03-11T07:38:02;101013.38;;;0.16;100.00
57568;BME280;43403;51.948;5.922;2023-03-11T07:40:29;101010.78;;;0.16;100.00
57568;BME280;43403;51.948;5.922;2023-03-11T07:42:55;101012.31;;;0.20;100.00
57568;BME280;43403;51.948;5.922;2023-03-11T07:45:22;101020.56;;;0.27;100.00
57568;BME280;43403;51.948;5.922;2023-03-11T07:47:49;101012.75;;;0.28;100.00
57568;BME280;43403;51.948;5.922;2023-03-11T07:50:16;101016.84;;;0.32;100.00
57568;BME280;43403;51.948;5.922;2023-03-11T07:52:43;101022.63;;;0.37;100.00
57568;BME280;43403;51.948;5.922;2023-03-11T07:55:09;101024.97;;;0.42;100.00
57568;BME280;43403;51.948;5.922;2023-03-11T07:57:36;101030.91;;;0.44;100.00
57568;BME280;43403;51.948;5.922;2023-03-11T08:00:03;101029.91;;;0.47;100.00
57568;BME280;43403;51.948;5.922;2023-03-11T08:02:29;101030.59;;;0.50;100.00
57568;BME280;43403;51.948;5.922;2023-03-11T08:04:56;101024.34;;;0.54;100.00
57568;BME280;43403;51.948;5.922;2023-03-11T08:07:22;101032.84;;;0.56;100.00
57568;BME280;43403;51.948;5.922;2023-03-11T08:09:49;101032.72;;;0.59;100.00
57568;BME280;43403;51.948;5.922;2023-03-11T08:12:15;101037.81;;;0.61;100.00
57568;BME280;43403;51.948;5.922;2023-03-11T08:14:42;101044.41;;;0.67;100.00
57568;BME280;43403;51.948;5.922;2023-03-11T08:17:09;101043.50;;;0.68;100.00
57568;BME280;43403;51.948;5.922;2023-03-11T08:19:35;101052.81;;;0.70;100.00
57568;BME280;43403;51.948;5.922;2023-03-11T08:22:02;101049.25;;;0.73;100.00
57568;BME280;43403;51.948;5.922;2023-03-11T08:24:29;101054.25;;;0.76;100.00
57568;BME280;43403;51.948;5.922;2023-03-11T08:26:56;101055.63;;;0.83;100.00
57568;BME280;43403;51.948;5.922;2023-03-11T08:29:23;101055.16;;;0.92;100.00
57568;BME280;43403;51.948;5.922;2023-03-11T08:31:49;101060.84;;;0.99;100.00
57568;BME280;43403;51.948;5.922;2023-03-11T08:34:16;101055.22;;;1.08;100.00
57568;BME280;43403;51.948;5.922;2023-03-11T08:36:43;101056.03;;;1.09;100.00
57568;BME280;43403;51.948;5.922;2023-03-11T08:39:10;101052.38;;;1.13;100.00
57568;BME280;43403;51.948;5.922;2023-03-11T08:41:36;101051.31;;;1.17;100.00
57568;BME280;43403;51.948;5.922;2023-03-11T08:44:03;101051.84;;;1.24;100.00
57568;BME280;43403;51.948;5.922;2023-03-11T08:46:35;101042.81;;;1.31;100.00
57568;BME280;43403;51.948;5.922;2023-03-11T08:49:03;101050.34;;;1.35;100.00
57568;BME280;43403;51.948;5.922;2023-03-11T08:51:32;101055.19;;;1.42;100.00
57568;BME280;43403;51.948;5.922;2023-03-11T08:53:59;101058.44;;;1.45;100.00
57568;BME280;43403;51.948;5.922;2023-03-11T08:56:26;101060.03;;;1.48;100.00
57568;BME280;43403;51.948;5.922;2023-03-11T08:58:53;101069.34;;;1.50;100.00
57568;BME280;43403;51.948;5.922;2023-03-11T09:01:20;101067.53;;;1.52;100.00
57568;BME280;43403;51.948;5.922;2023-03-11T09:03:48;101072.47;;;1.57;100.00
57568;BME280;43403;51.948;5.922;2023-03-11T09:06:15;101073.88;;;1.63;100.00
57568;BME280;43403;51.948;5.922;2023-03-11T09:08:44;101071.97;;;1.66;100.00
57568;BME280;43403;51.948;5.922;2023-03-11T09:11:15;101072.72;;;1.68;100.00
57568;BME280;43403;51.948;5.922;2023-03-11T09:13:43;101073.47;;;1.70;100.00
57568;BME280;43403;51.948;5.922;2023-03-11T09:16:15;101075.63;;;1.78;100.00
57568;BME280;43403;51.948;5.922;2023-03-11T09:18:43;101077.31;;;1.79;100.00
57568;BME280;43403;51.948;5.922;2023-03-11T09:21:10;101091.81;;;1.82;100.00
57568;BME280;43403;51.948;5.922;2023-03-11T09:23:37;101090.59;;;1.89;100.00
57568;BME280;43403;51.948;5.922;2023-03-11T09:26:04;101101.19;;;2.00;97.75
57568;BME280;43403;51.948;5.922;2023-03-11T09:28:30;101101.59;;;2.08;90.92
57568;BME280;43403;51.948;5.922;2023-03-11T09:30:57;101105.16;;;2.22;100.00
57568;BME280;43403;51.948;5.922;2023-03-11T09:33:24;101102.63;;;2.36;100.00
57568;BME280;43403;51.948;5.922;2023-03-11T09:35:50;101104.13;;;2.40;93.81
57568;BME280;43403;51.948;5.922;2023-03-11T09:38:17;101113.63;;;2.55;94.33
57568;BME280;43403;51.948;5.922;2023-03-11T09:40:57;101114.47;;;2.70;94.73
57568;BME280;43403;51.948;5.922;2023-03-11T09:46:03;101104.16;;;2.85;87.83
57568;BME280;43403;51.948;5.922;2023-03-11T09:48:39;101112.31;;;2.93;84.61
57568;BME280;43403;51.948;5.922;2023-03-11T09:51:30;101114.09;;;3.07;84.08
57568;BME280;43403;51.948;5.922;2023-03-11T09:54:03;101111.81;;;3.16;85.92
57568;BME280;43403;51.948;5.922;2023-03-11T09:56:30;101111.25;;;3.26;87.47
57568;BME280;43403;51.948;5.922;2023-03-11T09:59:05;101115.34;;;3.30;78.24
57568;BME280;43403;51.948;5.922;2023-03-11T10:01:40;101121.34;;;3.45;91.80
57568;BME280;43403;51.948;5.922;2023-03-11T10:04:13;101111.53;;;3.50;84.70
57568;BME280;43403;51.948;5.922;2023-03-11T10:06:44;101122.25;;;3.58;89.42
57568;BME280;43403;51.948;5.922;2023-03-11T10:09:18;101121.50;;;3.70;91.58
57568;BME280;43403;51.948;5.922;2023-03-11T10:12:19;101117.78;;;3.89;86.16
57568;BME280;43403;51.948;5.922;2023-03-11T10:26:41;101113.44;;;4.44;82.80
57568;BME280;43403;51.948;5.922;2023-03-11T10:29:22;101117.72;;;4.58;84.06
57568;BME280;43403;51.948;5.922;2023-03-11T10:32:52;101107.88;;;4.75;90.51
57568;BME280;43403;51.948;5.922;2023-03-11T10:35:04;101107.28;;;4.85;76.85
57568;BME280;43403;51.948;5.922;2023-03-11T10:37:34;101117.06;;;5.07;93.23
57568;BME280;43403;51.948;5.922;2023-03-11T10:40:30;101114.06;;;5.13;76.65
57568;BME280;43403;51.948;5.922;2023-03-11T10:43:00;101121.13;;;5.24;77.39
57568;BME280;43403;51.948;5.922;2023-03-11T10:45:35;101121.97;;;5.37;81.85
57568;BME280;43403;51.948;5.922;2023-03-11T10:48:13;101126.03;;;5.41;79.50
57568;BME280;43403;51.948;5.922;2023-03-11T10:50:56;101125.38;;;5.50;76.52
57568;BME280;43403;51.948;5.922;2023-03-11T10:53:27;101129.66;;;5.51;78.89
57568;BME280;43403;51.948;5.922;2023-03-11T10:55:56;101132.03;;;5.54;83.91
57568;BME280;43403;51.948;5.922;2023-03-11T10:58:28;101124.22;;;5.54;81.85
57568;BME280;43403;51.948;5.922;2023-03-11T11:01:12;101130.66;;;5.62;81.52
57568;BME280;43403;51.948;5.922;2023-03-11T11:03:44;101118.66;;;5.72;76.56
57568;BME280;43403;51.948;5.922;2023-03-11T11:06:28;101123.97;;;5.83;78.40
57568;BME280;43403;51.948;5.922;2023-03-11T11:12:02;101123.41;;;5.91;77.50
57568;BME280;43403;51.948;5.922;2023-03-11T11:14:51;101124.97;;;5.93;71.10
57568;BME280;43403;51.948;5.922;2023-03-11T11:17:19;101122.09;;;6.22;88.14
57568;BME280;43403;51.948;5.922;2023-03-11T11:19:48;101122.94;;;6.47;78.67
57568;BME280;43403;51.948;5.922;2023-03-11T11:22:18;101119.31;;;6.61;72.15
57568;BME280;43403;51.948;5.922;2023-03-11T11:24:47;101118.16;;;6.76;75.14
57568;BME280;43403;51.948;5.922;2023-03-11T11:29:46;101126.94;;;6.75;60.01
57568;BME280;43403;51.948;5.922;2023-03-11T11:34:40;101112.97;;;6.87;62.65
57568;BME280;43403;51.948;5.922;2023-03-11T11:37:11;101121.53;;;7.01;64.77
57568;BME280;43403;51.948;5.922;2023-03-11T11:39:48;101122.16;;;7.27;68.10
57568;BME280;43403;51.948;5.922;2023-03-11T11:42:20;101120.88;;;7.44;67.43
57568;BME280;43403;51.948;5.922;2023-03-11T11:44:52;101118.97;;;7.57;68.37
57568;BME280;43403;51.948;5.922;2023-03-11T11:47:32;101125.63;;;7.72;69.58
57568;BME280;43403;51.948;5.922;2023-03-11T11:50:05;101116.69;;;7.86;67.06
57568;BME280;43403;51.948;5.922;2023-03-11T11:52:42;101113.81;;;7.89;58.46
57568;BME280;43403;51.948;5.922;2023-03-11T11:55:23;101113.16;;;8.20;68.84
57568;BME280;43403;51.948;5.922;2023-03-11T11:57:51;101119.53;;;8.27;60.67
57568;BME280;43403;51.948;5.922;2023-03-11T12:00:29;101112.75;;;7.92;55.47
57568;BME280;43403;51.948;5.922;2023-03-11T12:03:26;101118.41;;;8.08;58.20
57568;BME280;43403;51.948;5.922;2023-03-11T12:05:57;101117.00;;;7.93;57.36
57568;BME280;43403;51.948;5.922;2023-03-11T12:09:01;101122.34;;;7.91;56.98
57568;BME280;43403;51.948;5.922;2023-03-11T12:11:36;101125.44;;;7.97;56.07
57568;BME280;43403;51.948;5.922;2023-03-11T12:16:46;101124.84;;;7.93;52.46
57568;BME280;43403;51.948;5.922;2023-03-11T12:22:24;101128.72;;;8.21;56.38
57568;BME280;43403;51.948;5.922;2023-03-11T12:27:44;101124.47;;;8.09;52.25
57568;BME280;43403;51.948;5.922;2023-03-11T12:30:19;101125.53;;;8.06;49.94
57568;BME280;43403;51.948;5.922;2023-03-11T12:32:50;101125.63;;;8.16;52.42
57568;BME280;43403;51.948;5.922;2023-03-11T12:35:22;101117.22;;;8.12;54.33
57568;BME280;43403;51.948;5.922;2023-03-11T12:43:56;101099.78;;;8.45;55.56
57568;BME280;43403;51.948;5.922;2023-03-11T12:46:14;101105.69;;;8.59;56.87
57568;BME280;43403;51.948;5.922;2023-03-11T12:48:46;101101.66;;;8.76;57.31
57568;BME280;43403;51.948;5.922;2023-03-11T12:54:31;101093.41;;;8.59;49.62
57568;BME280;43403;51.948;5.922;2023-03-11T12:57:13;101097.06;;;8.89;53.57
57568;BME280;43403;51.948;5.922;2023-03-11T13:05:59;101097.19;;;8.66;48.68
57568;BME280;43403;51.948;5.922;2023-03-11T13:08:36;101101.59;;;8.87;53.47
57568;BME280;43403;51.948;5.922;2023-03-11T13:16:41;101093.78;;;8.76;48.12
57568;BME280;43403;51.948;5.922;2023-03-11T13:21:54;101097.22;;;8.97;51.61
57568;BME280;43403;51.948;5.922;2023-03-11T13:34:46;101094.28;;;9.42;53.01
57568;BME280;43403;51.948;5.922;2023-03-11T13:40:10;101092.84;;;9.28;47.71
57568;BME280;43403;51.948;5.922;2023-03-11T13:42:43;101095.34;;;8.78;45.96
57568;BME280;43403;51.948;5.922;2023-03-11T13:45:24;101094.75;;;8.54;45.98
57568;BME280;43403;51.948;5.922;2023-03-11T13:48:00;101101.97;;;8.61;47.84
57568;BME280;43403;51.948;5.922;2023-03-11T13:50:32;101100.19;;;8.83;50.78
57568;BME280;43403;51.948;5.922;2023-03-11T13:53:06;101107.44;;;9.00;49.41
57568;BME280;43403;51.948;5.922;2023-03-11T13:55:40;101104.13;;;9.19;51.98
57568;BME280;43403;51.948;5.922;2023-03-11T13:58:28;101104.00;;;8.79;44.38
57568;BME280;43403;51.948;5.922;2023-03-11T14:01:00;101105.75;;;8.68;45.73
57568;BME280;43403;51.948;5.922;2023-03-11T14:03:33;101099.38;;;8.82;47.36
57568;BME280;43403;51.948;5.922;2023-03-11T14:06:05;101102.63;;;9.05;49.86
57568;BME280;43403;51.948;5.922;2023-03-11T14:08:35;101108.03;;;9.35;50.80
57568;BME280;43403;51.948;5.922;2023-03-11T14:13:48;101111.00;;;9.51;48.23
57568;BME280;43403;51.948;5.922;2023-03-11T14:16:22;101106.63;;;9.61;51.33
57568;BME280;43403;51.948;5.922;2023-03-11T14:19:19;101114.19;;;9.24;47.89
57568;BME280;43403;51.948;5.922;2023-03-11T14:21:48;101113.22;;;8.94;50.90
57568;BME280;43403;51.948;5.922;2023-03-11T14:24:18;101112.97;;;9.07;52.96
57568;BME280;43403;51.948;5.922;2023-03-11T14:26:46;101111.47;;;9.04;50.31